createdAt,value
2018-09-21T00:01:08.183Z,7.40
2018-09-21T00:03:36.733Z,7.73
2018-09-21T00:06:05.185Z,7.43
2018-09-21T00:08:33.535Z,7.50
2018-09-21T00:11:01.938Z,7.47
2018-09-21T00:13:30.362Z,7.97
2018-09-21T00:15:58.833Z,7.80
2018-09-21T00:18:27.902Z,8.40
2018-09-21T00:20:56.273Z,7.87
2018-09-21T00:23:24.820Z,8.17
2018-09-21T00:25:53.269Z,7.43
2018-09-21T00:28:21.716Z,8.00
2018-09-21T00:30:50.096Z,8.33
2018-09-21T00:33:18.527Z,7.80
2018-09-21T00:35:46.884Z,8.40
2018-09-21T00:38:15.305Z,8.67
2018-09-21T00:40:44.394Z,8.00
2018-09-21T00:43:13.144Z,8.50
2018-09-21T00:45:41.775Z,7.97
2018-09-21T00:48:10.226Z,7.47
2018-09-21T00:50:38.661Z,8.17
2018-09-21T00:53:07.322Z,7.80
2018-09-21T00:55:36.212Z,8.27
2018-09-21T00:58:04.647Z,9.00
2018-09-21T01:00:33.341Z,7.93
2018-09-21T01:03:01.878Z,9.00
2018-09-21T01:05:30.266Z,7.73
2018-09-21T01:07:58.902Z,8.60
2018-09-21T01:10:27.501Z,8.30
2018-09-21T01:12:55.866Z,8.60
2018-09-21T01:15:24.296Z,9.23
2018-09-21T01:17:52.672Z,9.30
2018-09-21T01:20:21.228Z,9.80
2018-09-21T01:22:49.700Z,8.83
2018-09-21T01:25:18.188Z,9.13
2018-09-21T01:27:46.636Z,9.60
2018-09-21T01:30:15.030Z,9.13
2018-09-21T01:32:43.478Z,9.83
2018-09-21T01:35:11.859Z,9.77
2018-09-21T01:37:40.226Z,10.40
2018-09-21T01:40:09.287Z,9.70
2018-09-21T01:42:38.295Z,9.67
2018-09-21T01:45:06.762Z,9.53
2018-09-21T01:47:35.466Z,9.80
2018-09-21T01:50:04.026Z,9.30
2018-09-21T01:52:32.410Z,8.90
2018-09-21T01:55:00.828Z,9.70
2018-09-21T01:57:29.346Z,9.00
2018-09-21T01:59:57.750Z,8.97
2018-09-21T02:02:26.441Z,8.83
2018-09-21T02:04:54.863Z,9.90
2018-09-21T02:07:23.373Z,9.47
2018-09-21T02:09:51.810Z,9.70
2018-09-21T02:12:20.258Z,9.07
2018-09-21T02:14:48.621Z,9.70
2018-09-21T02:17:17.200Z,9.23
2018-09-21T02:19:45.661Z,9.40
2018-09-21T02:22:14.569Z,9.70
2018-09-21T02:24:42.979Z,9.10
2018-09-21T02:27:11.443Z,9.17
2018-09-21T02:29:39.953Z,8.27
2018-09-21T02:32:08.348Z,8.90
2018-09-21T02:34:36.862Z,9.40
2018-09-21T02:37:05.379Z,9.10
2018-09-21T02:39:33.785Z,8.90
2018-09-21T02:42:02.209Z,9.33
2018-09-21T02:44:30.677Z,9.50
2018-09-21T02:46:59.071Z,9.27
2018-09-21T02:49:27.510Z,9.70
2018-09-21T02:51:55.950Z,9.27
2018-09-21T02:54:24.322Z,9.50
2018-09-21T02:56:52.871Z,9.57
2018-09-21T02:59:21.381Z,9.27
2018-09-21T03:01:49.709Z,9.60
2018-09-21T03:04:18.255Z,10.10
2018-09-21T03:06:46.778Z,8.80
2018-09-21T03:09:15.170Z,10.20
2018-09-21T03:11:43.554Z,10.13
2018-09-21T03:14:12.014Z,9.30
2018-09-21T03:16:40.344Z,9.40
2018-09-21T03:19:08.814Z,9.60
2018-09-21T03:21:37.308Z,10.03
2018-09-21T03:24:05.890Z,10.13
2018-09-21T03:26:34.354Z,10.10
2018-09-21T03:29:02.869Z,9.67
2018-09-21T03:31:31.239Z,10.93
2018-09-21T03:33:59.678Z,9.87
2018-09-21T03:36:28.288Z,9.93
2018-09-21T03:38:56.675Z,9.73
2018-09-21T03:41:25.400Z,10.23
2018-09-21T03:43:54.093Z,10.00
2018-09-21T03:46:22.463Z,9.60
2018-09-21T03:48:50.974Z,10.13
2018-09-21T03:51:19.426Z,9.40
2018-09-21T03:53:47.849Z,10.43
2018-09-21T03:56:16.946Z,9.17
2018-09-21T03:58:45.375Z,10.70
2018-09-21T04:01:13.904Z,9.87
2018-09-21T04:03:42.307Z,10.73
2018-09-21T04:06:11.628Z,12.40
2018-09-21T04:08:40.070Z,10.67
2018-09-21T04:11:08.526Z,10.43
2018-09-21T04:13:37.026Z,9.83
2018-09-21T04:16:05.676Z,11.30
2018-09-21T04:18:34.001Z,10.27
2018-09-21T04:21:02.442Z,11.20
2018-09-21T04:23:30.909Z,10.00
2018-09-21T04:26:00.404Z,9.90
2018-09-21T04:28:28.763Z,10.30
2018-09-21T04:30:57.278Z,10.70
2018-09-21T04:33:25.640Z,10.97
2018-09-21T04:35:54.117Z,11.00
2018-09-21T04:38:22.588Z,10.10
2018-09-21T04:40:51.015Z,9.90
2018-09-21T04:43:19.456Z,10.63
2018-09-21T04:45:47.961Z,10.03
2018-09-21T04:48:16.453Z,9.60
2018-09-21T04:50:45.679Z,10.57
2018-09-21T04:53:14.141Z,9.17
2018-09-21T04:55:42.474Z,10.17
2018-09-21T04:58:11.085Z,10.37
2018-09-21T05:00:39.602Z,10.83
2018-09-21T05:03:08.260Z,10.90
2018-09-21T05:05:36.649Z,11.07
2018-09-21T05:08:05.307Z,10.70
2018-09-21T05:10:33.776Z,10.97
2018-09-21T05:13:02.197Z,11.47
2018-09-21T05:15:30.779Z,11.67
2018-09-21T05:17:59.250Z,11.67
2018-09-21T05:20:27.723Z,11.10
2018-09-21T05:22:56.333Z,12.33
2018-09-21T05:25:24.980Z,11.30
2018-09-21T05:27:53.452Z,10.60
2018-09-21T05:30:21.875Z,9.97
2018-09-21T05:32:50.365Z,10.43
2018-09-21T05:35:18.791Z,10.90
2018-09-21T05:37:47.132Z,11.10
2018-09-21T05:40:15.720Z,11.47
2018-09-21T05:42:44.206Z,11.10
2018-09-21T05:45:12.690Z,11.03
2018-09-21T05:47:41.093Z,10.60
2018-09-21T05:50:09.639Z,11.37
2018-09-21T05:52:38.049Z,12.73
2018-09-21T05:55:06.634Z,11.90
2018-09-21T05:57:35.008Z,11.47
2018-09-21T06:00:03.539Z,11.60
2018-09-21T06:02:32.148Z,11.27
2018-09-21T06:05:07.341Z,12.10
2018-09-21T06:07:36.127Z,11.90
2018-09-21T06:10:05.063Z,12.90
2018-09-21T06:12:33.598Z,12.60
2018-09-21T06:15:02.217Z,15.17
2018-09-21T06:17:30.619Z,12.50
2018-09-21T06:20:11.757Z,12.20
2018-09-21T06:22:27.487Z,12.77
2018-09-21T06:24:55.987Z,12.33
2018-09-21T06:27:24.547Z,11.17
2018-09-21T06:29:53.049Z,11.67
2018-09-21T06:32:21.556Z,11.40
2018-09-21T06:34:49.975Z,12.57
2018-09-21T06:37:18.765Z,12.60
2018-09-21T06:39:47.204Z,13.60
2018-09-21T06:42:15.590Z,12.83
2018-09-21T06:44:44.129Z,12.53
2018-09-21T06:47:12.647Z,11.77
2018-09-21T06:49:41.090Z,12.80
2018-09-21T06:52:09.563Z,12.77
2018-09-21T06:54:38.040Z,12.63
2018-09-21T06:57:06.590Z,12.47
2018-09-21T06:59:35.070Z,11.90
2018-09-21T07:02:03.697Z,11.63
2018-09-21T07:04:32.098Z,13.03
2018-09-21T07:07:00.688Z,11.07
2018-09-21T07:09:29.154Z,11.27
2018-09-21T07:11:57.599Z,11.97
2018-09-21T07:14:26.079Z,11.90
2018-09-21T07:16:54.589Z,11.17
2018-09-21T07:19:23.155Z,10.70
2018-09-21T07:21:51.686Z,11.90
2018-09-21T07:24:20.968Z,11.87
2018-09-21T07:26:49.399Z,12.57
2018-09-21T07:29:17.911Z,11.20
2018-09-21T07:31:46.373Z,11.50
2018-09-21T07:34:14.879Z,10.57
2018-09-21T07:36:43.330Z,11.43
2018-09-21T07:39:11.772Z,11.10
2018-09-21T07:41:40.163Z,10.03
2018-09-21T07:44:08.585Z,10.17
2018-09-21T07:46:37.081Z,10.07
2018-09-21T07:49:05.514Z,9.60
2018-09-21T07:51:33.869Z,10.93
2018-09-21T07:54:02.421Z,11.37
2018-09-21T07:56:31.324Z,11.03
2018-09-21T07:58:59.878Z,9.83
2018-09-21T08:01:28.269Z,9.80
2018-09-21T08:03:56.769Z,9.37
2018-09-21T08:06:25.284Z,10.73
2018-09-21T08:08:53.724Z,10.30
2018-09-21T08:11:22.098Z,10.20
2018-09-21T08:13:50.616Z,10.70
2018-09-21T08:16:19.008Z,11.00
2018-09-21T08:18:47.587Z,9.93
2018-09-21T08:21:16.023Z,8.90
2018-09-21T08:23:44.461Z,8.83
2018-09-21T08:26:13.021Z,9.00
2018-09-21T08:28:41.572Z,8.77
2018-09-21T08:31:10.009Z,8.73
2018-09-21T08:33:38.554Z,8.40
2018-09-21T08:36:07.347Z,8.40
2018-09-21T08:38:35.808Z,9.83
2018-09-21T08:41:04.404Z,9.10
2018-09-21T08:43:33.053Z,10.60
2018-09-21T08:46:01.445Z,7.77
2018-09-21T08:48:29.883Z,7.77
2018-09-21T08:50:58.353Z,8.80
2018-09-21T08:53:27.908Z,9.27
2018-09-21T08:55:56.335Z,9.53
2018-09-21T08:58:25.436Z,11.20
2018-09-21T09:00:53.881Z,9.03
2018-09-21T09:03:22.513Z,8.67
2018-09-21T09:05:51.774Z,8.90
2018-09-21T09:08:20.837Z,10.00
2018-09-21T09:10:49.230Z,9.00
2018-09-21T09:13:18.308Z,7.97
2018-09-21T09:15:47.025Z,9.00
2018-09-21T09:18:15.391Z,7.37
2018-09-21T09:20:43.952Z,8.20
2018-09-21T09:23:12.437Z,8.83
2018-09-21T09:25:41.004Z,7.90
2018-09-21T09:28:09.635Z,9.13
2018-09-21T09:30:38.442Z,8.00
2018-09-21T09:33:06.890Z,7.70
2018-09-21T09:35:35.336Z,7.53
2018-09-21T09:38:03.886Z,7.80
2018-09-21T09:40:32.411Z,8.33
2018-09-21T09:43:00.896Z,8.87
2018-09-21T09:45:29.336Z,8.20
2018-09-21T09:47:57.766Z,8.00
2018-09-21T09:50:26.276Z,7.83
2018-09-21T09:52:54.724Z,7.43
2018-09-21T09:55:23.877Z,7.63
2018-09-21T09:57:52.325Z,7.23
2018-09-21T10:00:26.127Z,8.23
2018-09-21T10:02:54.558Z,8.70
2018-09-21T10:05:23.176Z,6.97
2018-09-21T10:07:51.756Z,8.00
2018-09-21T10:10:20.295Z,7.90
2018-09-21T10:12:48.667Z,7.07
2018-09-21T10:15:17.830Z,7.47
2018-09-21T10:17:46.344Z,6.30
2018-09-21T10:20:14.767Z,6.57
2018-09-21T10:22:43.278Z,7.00
2018-09-21T10:25:11.863Z,6.93
2018-09-21T10:27:40.702Z,7.27
2018-09-21T10:30:09.046Z,6.50
2018-09-21T10:32:37.476Z,6.60
2018-09-21T10:35:06.107Z,5.83
2018-09-21T10:37:34.578Z,5.93
2018-09-21T10:40:03.166Z,5.07
2018-09-21T10:42:31.607Z,5.10
2018-09-21T10:47:25.541Z,5.57
2018-09-21T10:49:54.045Z,5.40
2018-09-21T10:52:22.545Z,5.70
2018-09-21T10:54:51.042Z,6.10
2018-09-21T10:57:19.976Z,5.67
2018-09-21T10:59:48.348Z,5.77
2018-09-21T11:02:16.731Z,5.30
2018-09-21T11:04:45.073Z,5.47
2018-09-21T11:07:13.584Z,5.70
2018-09-21T11:09:41.952Z,5.50
2018-09-21T11:12:10.340Z,4.90
2018-09-21T11:14:38.706Z,5.07
2018-09-21T11:17:07.156Z,6.20
2018-09-21T11:19:35.538Z,5.43
2018-09-21T11:22:03.954Z,6.20
2018-09-21T11:24:32.288Z,5.30
2018-09-21T11:27:00.695Z,4.90
2018-09-21T11:29:29.097Z,5.20
2018-09-21T11:31:57.490Z,5.07
2018-09-21T11:34:25.845Z,4.07
2018-09-21T11:36:54.214Z,4.07
2018-09-21T11:39:22.639Z,4.87
2018-09-21T11:41:51.023Z,5.43
2018-09-21T11:44:19.391Z,4.00
2018-09-21T11:46:47.833Z,3.47
2018-09-21T11:49:16.118Z,3.70
2018-09-21T11:51:44.481Z,4.40
2018-09-21T11:54:13.066Z,3.40
2018-09-21T11:56:41.514Z,2.63
2018-09-21T11:59:09.870Z,3.10
2018-09-21T12:01:38.249Z,3.57
2018-09-21T12:04:06.886Z,3.37
2018-09-21T12:06:35.244Z,4.03
2018-09-21T12:09:04.742Z,3.00
2018-09-21T12:11:33.130Z,3.17
2018-09-21T12:14:01.499Z,3.23
2018-09-21T12:16:29.927Z,2.73
2018-09-21T12:18:58.258Z,3.00
2018-09-21T12:21:26.714Z,3.07
2018-09-21T12:23:55.128Z,2.77
2018-09-21T12:26:23.497Z,2.60
2018-09-21T12:28:51.848Z,4.20
2018-09-21T12:31:20.324Z,3.63
2018-09-21T12:33:48.792Z,2.63
2018-09-21T12:36:17.157Z,2.70
2018-09-21T12:38:45.683Z,2.90
2018-09-21T12:41:14.104Z,3.87
2018-09-21T12:43:42.480Z,2.67
2018-09-21T12:46:17.656Z,1.97
2018-09-21T12:48:46.045Z,1.70
2018-09-21T12:51:14.466Z,2.90
2018-09-21T12:53:42.894Z,3.27
2018-09-21T12:56:11.503Z,2.43
2018-09-21T12:58:40.691Z,2.80
2018-09-21T13:01:09.079Z,2.70
2018-09-21T13:03:37.523Z,2.20
2018-09-21T13:06:05.906Z,2.20
2018-09-21T13:08:34.286Z,2.67
2018-09-21T13:11:02.665Z,2.10
2018-09-21T13:13:31.169Z,2.30
2018-09-21T13:15:59.608Z,0.97
2018-09-21T13:18:28.015Z,0.90
2018-09-21T13:20:56.431Z,0.70
2018-09-21T13:23:24.831Z,0.60
2018-09-21T13:25:53.208Z,0.40
2018-09-21T13:28:21.580Z,0.57
2018-09-21T13:30:49.923Z,0.60
2018-09-21T13:33:18.346Z,0.90
2018-09-21T13:35:46.799Z,0.63
2018-09-21T13:38:15.229Z,0.60
2018-09-21T13:40:43.725Z,0.57
2018-09-21T13:43:13.039Z,0.77
2018-09-21T13:45:41.433Z,0.53
2018-09-21T13:48:09.835Z,1.43
2018-09-21T13:50:38.273Z,0.70
2018-09-21T13:53:06.735Z,0.87
2018-09-21T13:55:35.199Z,0.80
2018-09-21T13:58:03.615Z,0.80
2018-09-21T14:00:31.979Z,0.93
2018-09-21T14:03:00.920Z,1.50
2018-09-21T14:05:29.390Z,1.17
2018-09-21T14:07:57.772Z,1.00
2018-09-21T14:10:26.232Z,1.00
2018-09-21T14:12:54.592Z,1.13
2018-09-21T14:15:23.062Z,1.10
2018-09-21T14:17:51.488Z,1.83
2018-09-21T14:20:19.847Z,1.60
2018-09-21T14:22:48.211Z,1.40
2018-09-21T14:25:16.675Z,1.90
2018-09-21T14:27:45.055Z,1.40
2018-09-21T14:30:13.476Z,1.20
2018-09-21T14:32:41.903Z,1.30
2018-09-21T14:35:10.851Z,1.03
2018-09-21T14:37:39.273Z,1.10
2018-09-21T14:40:07.707Z,1.13
2018-09-21T14:42:36.112Z,1.00
2018-09-21T14:45:04.841Z,1.40
2018-09-21T14:47:33.227Z,1.40
2018-09-21T14:50:01.612Z,1.50
2018-09-21T14:52:30.735Z,1.83
2018-09-21T14:54:59.148Z,2.40
2018-09-21T14:57:27.539Z,1.50
2018-09-21T14:59:55.972Z,1.00
2018-09-21T15:02:24.323Z,1.77
2018-09-21T15:04:52.694Z,1.53
2018-09-21T15:07:21.067Z,1.60
2018-09-21T15:09:49.447Z,1.87
2018-09-21T15:12:17.900Z,2.00
2018-09-21T15:14:46.270Z,1.50
2018-09-21T15:17:14.867Z,1.47
2018-09-21T15:19:43.350Z,1.40
2018-09-21T15:22:11.796Z,1.70
2018-09-21T15:24:40.180Z,2.43
2018-09-21T15:27:08.531Z,1.77
2018-09-21T15:29:36.883Z,1.77
2018-09-21T15:32:05.280Z,1.90
2018-09-21T15:34:33.599Z,1.57
2018-09-21T15:37:01.989Z,2.30
2018-09-21T15:39:30.426Z,1.40
2018-09-21T15:41:58.769Z,2.10
2018-09-21T15:44:27.162Z,1.80
2018-09-21T15:46:55.574Z,2.10
2018-09-21T15:49:24.032Z,1.80
2018-09-21T15:51:52.460Z,2.70
2018-09-21T15:54:20.815Z,3.10
2018-09-21T15:56:49.211Z,2.07
2018-09-21T15:59:17.584Z,2.77
2018-09-21T16:01:46.030Z,2.73
2018-09-21T16:04:14.419Z,2.63
2018-09-21T16:06:43.095Z,2.93
2018-09-21T16:09:11.463Z,2.70
2018-09-21T16:11:39.851Z,2.27
2018-09-21T16:14:08.316Z,2.60
2018-09-21T16:16:37.443Z,1.60
2018-09-21T16:19:06.023Z,2.10
2018-09-21T16:21:34.395Z,2.27
2018-09-21T16:24:03.486Z,2.10
2018-09-21T16:26:32.046Z,2.10
2018-09-21T16:29:00.452Z,2.13
2018-09-21T16:31:28.806Z,1.37
2018-09-21T16:33:57.127Z,3.40
2018-09-21T16:36:25.547Z,1.67
2018-09-21T16:38:53.923Z,2.00
2018-09-21T16:41:22.324Z,1.90
2018-09-21T16:43:50.718Z,2.23
2018-09-21T16:46:19.846Z,2.13
2018-09-21T16:48:48.248Z,1.90
2018-09-21T16:51:16.699Z,1.50
2018-09-21T16:53:45.063Z,2.10
2018-09-21T16:56:13.447Z,1.63
2018-09-21T16:58:41.831Z,1.60
2018-09-21T17:01:10.219Z,1.90
2018-09-21T17:03:38.648Z,2.47
2018-09-21T17:06:07.033Z,2.73
2018-09-21T17:08:35.448Z,2.10
2018-09-21T17:11:03.878Z,1.80
2018-09-21T17:13:32.216Z,2.13
2018-09-21T17:16:00.929Z,1.70
2018-09-21T17:18:29.303Z,2.20
2018-09-21T17:20:58.145Z,2.37
2018-09-21T17:23:26.547Z,2.17
2018-09-21T17:25:55.093Z,2.40
2018-09-21T17:28:23.550Z,2.83
2018-09-21T17:30:51.953Z,1.40
2018-09-21T17:33:20.371Z,2.60
2018-09-21T17:35:48.776Z,1.80
2018-09-21T17:38:17.197Z,1.37
2018-09-21T17:40:45.559Z,1.30
2018-09-21T17:43:13.968Z,2.30
2018-09-21T17:45:42.398Z,1.43
2018-09-21T17:48:10.757Z,1.20
2018-09-21T17:50:39.086Z,1.30
2018-09-21T17:53:07.609Z,1.03
2018-09-21T17:55:37.113Z,1.20
2018-09-21T17:58:05.446Z,1.77
2018-09-21T18:00:33.865Z,1.20
2018-09-21T18:03:02.261Z,1.27
2018-09-21T18:05:30.691Z,1.10
2018-09-21T18:07:59.104Z,1.50
2018-09-21T18:10:27.540Z,1.47
2018-09-21T18:12:55.981Z,1.77
2018-09-21T18:15:24.475Z,1.60
2018-09-21T18:17:52.900Z,1.70
2018-09-21T18:20:21.258Z,4.10
2018-09-21T18:22:49.711Z,1.73
2018-09-21T18:25:18.126Z,1.70
2018-09-21T18:27:46.479Z,1.10
2018-09-21T18:30:14.873Z,1.60
2018-09-21T18:32:43.275Z,1.90
2018-09-21T18:35:11.621Z,1.23
2018-09-21T18:37:40.003Z,1.40
2018-09-21T18:40:08.749Z,1.10
2018-09-21T18:42:37.149Z,1.00
2018-09-21T18:45:05.545Z,1.10
2018-09-21T18:47:33.892Z,1.80
2018-09-21T18:50:02.313Z,1.13
2018-09-21T18:52:30.702Z,1.77
2018-09-21T18:54:59.026Z,1.27
2018-09-21T18:57:27.441Z,1.40
2018-09-21T18:59:55.785Z,1.97
2018-09-21T19:02:24.166Z,1.17
2018-09-21T19:04:52.647Z,1.50
2018-09-21T19:07:26.711Z,1.30
2018-09-21T19:09:55.373Z,1.50
2018-09-21T19:12:23.776Z,1.13
2018-09-21T19:14:52.540Z,1.43
2018-09-21T19:17:21.315Z,1.30
2018-09-21T19:19:50.434Z,1.60
2018-09-21T19:22:19.082Z,1.30
2018-09-21T19:24:47.725Z,1.60
2018-09-21T19:27:16.390Z,1.30
2018-09-21T19:29:45.137Z,1.23
2018-09-21T19:32:14.000Z,0.73
2018-09-21T19:34:42.687Z,1.40
2018-09-21T19:37:11.341Z,1.60
2018-09-21T19:39:40.056Z,0.90
2018-09-21T19:42:08.529Z,1.60
2018-09-21T19:44:36.941Z,1.70
2018-09-21T19:47:05.326Z,1.00
2018-09-21T19:49:33.745Z,1.30
2018-09-21T19:52:02.119Z,1.07
2018-09-21T19:54:30.720Z,1.27
2018-09-21T19:56:59.195Z,1.00
2018-09-21T19:59:27.605Z,1.40
2018-09-21T20:01:56.050Z,1.60
2018-09-21T20:04:24.504Z,1.77
2018-09-21T20:06:52.940Z,1.20
2018-09-21T20:09:21.324Z,1.20
2018-09-21T20:11:49.707Z,1.40
2018-09-21T20:14:18.122Z,1.20
2018-09-21T20:16:46.628Z,1.20
2018-09-21T20:19:15.075Z,1.30
2018-09-21T20:21:45.012Z,1.80
2018-09-21T20:24:13.489Z,0.83
2018-09-21T20:26:41.944Z,2.07
2018-09-21T20:29:10.537Z,1.30
2018-09-21T20:31:44.415Z,1.33
2018-09-21T20:34:12.853Z,1.50
2018-09-21T20:36:41.272Z,1.03
2018-09-21T20:39:09.751Z,1.10
2018-09-21T20:41:38.249Z,1.53
2018-09-21T20:44:06.662Z,1.00
2018-09-21T20:46:35.055Z,2.00
2018-09-21T20:49:03.468Z,1.40
2018-09-21T20:51:31.942Z,1.17
2018-09-21T20:54:00.345Z,1.10
2018-09-21T20:56:28.761Z,1.67
2018-09-21T20:58:57.276Z,1.20
2018-09-21T21:01:25.644Z,1.37
2018-09-21T21:03:54.124Z,1.10
2018-09-21T21:06:22.556Z,1.47
2018-09-21T21:08:50.944Z,0.90
2018-09-21T21:11:19.361Z,1.20
2018-09-21T21:13:47.774Z,1.50
2018-09-21T21:16:16.172Z,1.47
2018-09-21T21:18:45.316Z,1.80
2018-09-21T21:21:13.729Z,1.20
2018-09-21T21:23:42.115Z,1.50
2018-09-21T21:26:10.491Z,1.40
2018-09-21T21:28:38.909Z,1.43
2018-09-21T21:31:07.286Z,1.03
2018-09-21T21:33:35.712Z,1.27
2018-09-21T21:36:06.769Z,1.60
2018-09-21T21:38:35.190Z,1.23
2018-09-21T21:41:03.620Z,1.73
2018-09-21T21:43:32.065Z,1.20
2018-09-21T21:46:00.456Z,1.30
2018-09-21T21:48:28.915Z,1.20
2018-09-21T21:50:57.315Z,1.07
2018-09-21T21:53:25.694Z,0.93
2018-09-21T21:55:54.108Z,1.90
2018-09-21T21:58:22.507Z,0.83
2018-09-21T22:00:56.338Z,1.37
2018-09-21T22:03:24.797Z,0.90
2018-09-21T22:05:53.231Z,1.20
2018-09-21T22:08:21.820Z,1.40
2018-09-21T22:10:51.646Z,0.80
2018-09-21T22:14:26.976Z,1.00
2018-09-21T22:16:55.431Z,1.43
2018-09-21T22:19:23.850Z,1.20
2018-09-21T22:21:52.310Z,1.20
2018-09-21T22:24:20.698Z,1.10
2018-09-21T22:26:49.148Z,1.33
2018-09-21T22:29:17.530Z,1.07
2018-09-21T22:31:46.092Z,1.17
2018-09-21T22:34:14.519Z,1.40
2018-09-21T22:36:42.988Z,1.40
2018-09-21T22:39:11.370Z,1.30
2018-09-21T22:41:39.861Z,1.30
2018-09-21T22:44:08.252Z,1.70
2018-09-21T22:46:36.710Z,1.30
2018-09-21T22:49:09.369Z,1.27
2018-09-21T22:51:38.264Z,1.60
2018-09-21T22:54:06.713Z,1.67
2018-09-21T22:56:35.226Z,1.10
2018-09-21T22:59:03.799Z,1.90
2018-09-21T23:01:32.287Z,1.37
2018-09-21T23:04:00.866Z,1.30
2018-09-21T23:06:29.362Z,1.97
2018-09-21T23:08:57.837Z,1.80
2018-09-21T23:11:26.348Z,1.67
2018-09-21T23:13:55.032Z,1.30
2018-09-21T23:16:23.663Z,1.20
2018-09-21T23:18:52.340Z,1.53
2018-09-21T23:21:20.815Z,1.80
2018-09-21T23:23:49.240Z,1.47
2018-09-21T23:26:18.535Z,1.33
2018-09-21T23:28:47.066Z,1.00
2018-09-21T23:31:15.513Z,1.53
2018-09-21T23:33:43.983Z,1.67
2018-09-21T23:36:12.621Z,1.50
2018-09-21T23:38:41.177Z,1.07
2018-09-21T23:41:09.598Z,1.30
2018-09-21T23:43:38.002Z,1.50
2018-09-21T23:46:06.520Z,1.07
2018-09-21T23:48:34.999Z,1.17
2018-09-21T23:51:03.982Z,1.47
2018-09-21T23:53:32.365Z,1.03
2018-09-21T23:56:00.718Z,1.37
2018-09-21T23:58:29.073Z,1.20
